sensor_id;sensor_type;location;lat;lon;timestamp;P1;durP1;ratioP1;P2;durP2;ratioP2
63284;SDS011;49409;55.708;37.522;2022-11-20T00:00:24;8.85;;;5.10;;
63284;SDS011;49409;55.708;37.522;2022-11-20T00:02:49;10.10;;;4.93;;
63284;SDS011;49409;55.708;37.522;2022-11-20T00:05:15;12.93;;;5.60;;
63284;SDS011;49409;55.708;37.522;2022-11-20T00:07:40;8.07;;;4.32;;
63284;SDS011;49409;55.708;37.522;2022-11-20T00:10:06;11.43;;;5.38;;
63284;SDS011;49409;55.708;37.522;2022-11-20T00:12:32;10.93;;;5.18;;
63284;SDS011;49409;55.708;37.522;2022-11-20T00:14:57;11.10;;;5.90;;
63284;SDS011;49409;55.708;37.522;2022-11-20T00:17:23;13.38;;;6.82;;
63284;SDS011;49409;55.708;37.522;2022-11-20T00:19:48;11.35;;;6.18;;
63284;SDS011;49409;55.708;37.522;2022-11-20T00:22:14;14.18;;;5.90;;
63284;SDS011;49409;55.708;37.522;2022-11-20T00:24:40;12.77;;;5.88;;
63284;SDS011;49409;55.708;37.522;2022-11-20T00:27:05;10.73;;;5.07;;
63284;SDS011;49409;55.708;37.522;2022-11-20T00:29:30;9.85;;;5.50;;
63284;SDS011;49409;55.708;37.522;2022-11-20T00:31:56;10.40;;;5.60;;
63284;SDS011;49409;55.708;37.522;2022-11-20T00:34:21;12.55;;;5.47;;
63284;SDS011;49409;55.708;37.522;2022-11-20T00:36:47;10.23;;;5.35;;
63284;SDS011;49409;55.708;37.522;2022-11-20T00:39:12;12.02;;;5.65;;
63284;SDS011;49409;55.708;37.522;2022-11-20T00:41:38;12.38;;;5.80;;
63284;SDS011;49409;55.708;37.522;2022-11-20T00:44:03;11.52;;;5.03;;
63284;SDS011;49409;55.708;37.522;2022-11-20T00:46:29;11.32;;;5.15;;
63284;SDS011;49409;55.708;37.522;2022-11-20T00:48:55;10.45;;;5.72;;
63284;SDS011;49409;55.708;37.522;2022-11-20T00:51:21;10.82;;;5.05;;
63284;SDS011;49409;55.708;37.522;2022-11-20T00:53:48;11.93;;;5.07;;
63284;SDS011;49409;55.708;37.522;2022-11-20T00:56:15;9.70;;;4.63;;
63284;SDS011;49409;55.708;37.522;2022-11-20T00:58:42;14.40;;;5.35;;
63284;SDS011;49409;55.708;37.522;2022-11-20T01:01:13;9.98;;;5.13;;
63284;SDS011;49409;55.708;37.522;2022-11-20T01:03:42;10.80;;;4.88;;
63284;SDS011;49409;55.708;37.522;2022-11-20T01:06:10;8.80;;;4.03;;
63284;SDS011;49409;55.708;37.522;2022-11-20T01:08:37;10.07;;;4.90;;
63284;SDS011;49409;55.708;37.522;2022-11-20T01:11:04;9.40;;;4.57;;
63284;SDS011;49409;55.708;37.522;2022-11-20T01:13:32;8.85;;;4.57;;
63284;SDS011;49409;55.708;37.522;2022-11-20T01:18:29;10.02;;;5.40;;
63284;SDS011;49409;55.708;37.522;2022-11-20T01:20:55;8.95;;;4.72;;
63284;SDS011;49409;55.708;37.522;2022-11-20T01:23:20;10.63;;;4.93;;
63284;SDS011;49409;55.708;37.522;2022-11-20T01:25:46;9.55;;;4.70;;
63284;SDS011;49409;55.708;37.522;2022-11-20T01:28:11;9.52;;;4.65;;
63284;SDS011;49409;55.708;37.522;2022-11-20T01:30:37;9.40;;;4.63;;
63284;SDS011;49409;55.708;37.522;2022-11-20T01:33:02;8.75;;;4.30;;
63284;SDS011;49409;55.708;37.522;2022-11-20T01:35:27;8.20;;;4.47;;
63284;SDS011;49409;55.708;37.522;2022-11-20T01:37:53;9.95;;;4.40;;
63284;SDS011;49409;55.708;37.522;2022-11-20T01:40:18;9.13;;;4.25;;
63284;SDS011;49409;55.708;37.522;2022-11-20T01:42:46;9.75;;;4.78;;
63284;SDS011;49409;55.708;37.522;2022-11-20T01:48:25;9.90;;;4.28;;
63284;SDS011;49409;55.708;37.522;2022-11-20T01:51:12;13.15;;;5.07;;
63284;SDS011;49409;55.708;37.522;2022-11-20T01:53:42;11.50;;;4.93;;
63284;SDS011;49409;55.708;37.522;2022-11-20T01:56:09;12.13;;;5.03;;
63284;SDS011;49409;55.708;37.522;2022-11-20T01:58:37;8.30;;;4.82;;
63284;SDS011;49409;55.708;37.522;2022-11-20T02:01:06;8.50;;;4.38;;
63284;SDS011;49409;55.708;37.522;2022-11-20T02:03:32;10.15;;;4.57;;
63284;SDS011;49409;55.708;37.522;2022-11-20T02:06:01;8.55;;;4.63;;
63284;SDS011;49409;55.708;37.522;2022-11-20T02:08:34;10.10;;;5.43;;
63284;SDS011;49409;55.708;37.522;2022-11-20T02:11:00;12.20;;;4.75;;
63284;SDS011;49409;55.708;37.522;2022-11-20T02:13:26;9.35;;;4.95;;
63284;SDS011;49409;55.708;37.522;2022-11-20T02:16:14;8.65;;;4.50;;
63284;SDS011;49409;55.708;37.522;2022-11-20T02:18:50;8.83;;;4.63;;
63284;SDS011;49409;55.708;37.522;2022-11-20T02:21:20;10.95;;;4.95;;
63284;SDS011;49409;55.708;37.522;2022-11-20T02:26:51;9.05;;;4.65;;
63284;SDS011;49409;55.708;37.522;2022-11-20T02:32:26;6.90;;;3.65;;
63284;SDS011;49409;55.708;37.522;2022-11-20T02:34:53;8.65;;;4.05;;
63284;SDS011;49409;55.708;37.522;2022-11-20T02:37:19;9.55;;;4.63;;
63284;SDS011;49409;55.708;37.522;2022-11-20T02:39:54;8.50;;;3.90;;
63284;SDS011;49409;55.708;37.522;2022-11-20T02:42:20;8.15;;;4.05;;
63284;SDS011;49409;55.708;37.522;2022-11-20T02:44:45;10.77;;;4.45;;
63284;SDS011;49409;55.708;37.522;2022-11-20T02:47:11;10.38;;;4.70;;
63284;SDS011;49409;55.708;37.522;2022-11-20T02:49:36;9.73;;;4.25;;
63284;SDS011;49409;55.708;37.522;2022-11-20T02:52:02;9.15;;;4.47;;
63284;SDS011;49409;55.708;37.522;2022-11-20T02:54:28;8.18;;;4.18;;
63284;SDS011;49409;55.708;37.522;2022-11-20T02:56:53;9.52;;;4.72;;
63284;SDS011;49409;55.708;37.522;2022-11-20T02:59:19;8.57;;;4.30;;
63284;SDS011;49409;55.708;37.522;2022-11-20T03:01:44;10.10;;;4.40;;
63284;SDS011;49409;55.708;37.522;2022-11-20T03:04:09;10.00;;;4.18;;
63284;SDS011;49409;55.708;37.522;2022-11-20T03:06:35;10.07;;;4.30;;
63284;SDS011;49409;55.708;37.522;2022-11-20T03:09:00;9.30;;;4.50;;
63284;SDS011;49409;55.708;37.522;2022-11-20T03:11:26;9.27;;;5.15;;
63284;SDS011;49409;55.708;37.522;2022-11-20T03:13:51;9.75;;;4.70;;
63284;SDS011;49409;55.708;37.522;2022-11-20T03:16:20;10.25;;;4.63;;
63284;SDS011;49409;55.708;37.522;2022-11-20T03:18:47;9.52;;;4.85;;
63284;SDS011;49409;55.708;37.522;2022-11-20T03:21:14;8.73;;;3.80;;
63284;SDS011;49409;55.708;37.522;2022-11-20T03:23:41;7.57;;;3.72;;
63284;SDS011;49409;55.708;37.522;2022-11-20T03:26:16;8.93;;;4.32;;
63284;SDS011;49409;55.708;37.522;2022-11-20T03:28:50;9.45;;;4.40;;
63284;SDS011;49409;55.708;37.522;2022-11-20T03:31:17;9.55;;;4.45;;
63284;SDS011;49409;55.708;37.522;2022-11-20T03:33:44;10.70;;;4.88;;
63284;SDS011;49409;55.708;37.522;2022-11-20T03:36:12;9.40;;;4.90;;
63284;SDS011;49409;55.708;37.522;2022-11-20T03:38:39;8.43;;;4.10;;
63284;SDS011;49409;55.708;37.522;2022-11-20T03:41:06;13.30;;;4.95;;
63284;SDS011;49409;55.708;37.522;2022-11-20T03:43:36;10.90;;;4.37;;
63284;SDS011;49409;55.708;37.522;2022-11-20T03:46:02;9.93;;;4.78;;
63284;SDS011;49409;55.708;37.522;2022-11-20T03:48:28;8.07;;;4.53;;
63284;SDS011;49409;55.708;37.522;2022-11-20T03:51:16;9.23;;;4.43;;
63284;SDS011;49409;55.708;37.522;2022-11-20T03:53:44;9.77;;;4.65;;
63284;SDS011;49409;55.708;37.522;2022-11-20T03:56:11;8.82;;;4.25;;
63284;SDS011;49409;55.708;37.522;2022-11-20T03:58:38;9.93;;;4.30;;
63284;SDS011;49409;55.708;37.522;2022-11-20T04:01:23;12.25;;;5.05;;
63284;SDS011;49409;55.708;37.522;2022-11-20T04:03:55;8.68;;;3.88;;
63284;SDS011;49409;55.708;37.522;2022-11-20T04:06:22;9.77;;;5.07;;
63284;SDS011;49409;55.708;37.522;2022-11-20T04:08:50;8.50;;;4.30;;
63284;SDS011;49409;55.708;37.522;2022-11-20T04:11:17;9.35;;;4.65;;
63284;SDS011;49409;55.708;37.522;2022-11-20T04:13:48;10.23;;;5.07;;
63284;SDS011;49409;55.708;37.522;2022-11-20T04:16:15;8.68;;;4.38;;
63284;SDS011;49409;55.708;37.522;2022-11-20T04:18:41;11.50;;;4.65;;
63284;SDS011;49409;55.708;37.522;2022-11-20T04:21:08;9.52;;;4.18;;
63284;SDS011;49409;55.708;37.522;2022-11-20T04:23:34;10.88;;;4.65;;
63284;SDS011;49409;55.708;37.522;2022-11-20T04:26:03;10.00;;;4.50;;
63284;SDS011;49409;55.708;37.522;2022-11-20T04:28:33;9.60;;;4.70;;
63284;SDS011;49409;55.708;37.522;2022-11-20T04:31:09;10.35;;;5.20;;
63284;SDS011;49409;55.708;37.522;2022-11-20T04:33:36;9.90;;;4.63;;
63284;SDS011;49409;55.708;37.522;2022-11-20T04:36:03;11.20;;;4.38;;
63284;SDS011;49409;55.708;37.522;2022-11-20T04:38:30;9.70;;;4.57;;
63284;SDS011;49409;55.708;37.522;2022-11-20T04:40:57;12.10;;;4.60;;
63284;SDS011;49409;55.708;37.522;2022-11-20T04:43:24;8.77;;;4.20;;
63284;SDS011;49409;55.708;37.522;2022-11-20T04:45:50;11.88;;;4.78;;
63284;SDS011;49409;55.708;37.522;2022-11-20T04:48:16;10.02;;;4.65;;
63284;SDS011;49409;55.708;37.522;2022-11-20T04:50:42;9.60;;;4.65;;
63284;SDS011;49409;55.708;37.522;2022-11-20T04:53:07;11.50;;;4.95;;
63284;SDS011;49409;55.708;37.522;2022-11-20T04:55:33;8.60;;;4.32;;
63284;SDS011;49409;55.708;37.522;2022-11-20T04:57:58;10.07;;;4.50;;
63284;SDS011;49409;55.708;37.522;2022-11-20T05:00:24;8.65;;;4.43;;
63284;SDS011;49409;55.708;37.522;2022-11-20T05:02:49;9.82;;;4.97;;
63284;SDS011;49409;55.708;37.522;2022-11-20T05:05:15;8.98;;;4.68;;
63284;SDS011;49409;55.708;37.522;2022-11-20T05:07:40;9.88;;;5.07;;
63284;SDS011;49409;55.708;37.522;2022-11-20T05:10:06;11.50;;;5.30;;
63284;SDS011;49409;55.708;37.522;2022-11-20T05:12:31;9.70;;;5.00;;
63284;SDS011;49409;55.708;37.522;2022-11-20T05:14:57;10.73;;;4.70;;
63284;SDS011;49409;55.708;37.522;2022-11-20T05:17:23;11.27;;;4.80;;
63284;SDS011;49409;55.708;37.522;2022-11-20T05:19:48;10.48;;;4.95;;
63284;SDS011;49409;55.708;37.522;2022-11-20T05:22:14;9.60;;;4.90;;
63284;SDS011;49409;55.708;37.522;2022-11-20T05:24:39;9.60;;;4.80;;
63284;SDS011;49409;55.708;37.522;2022-11-20T05:27:05;9.65;;;4.85;;
63284;SDS011;49409;55.708;37.522;2022-11-20T05:29:30;10.52;;;5.10;;
63284;SDS011;49409;55.708;37.522;2022-11-20T05:31:56;8.88;;;4.45;;
63284;SDS011;49409;55.708;37.522;2022-11-20T05:34:21;10.55;;;4.65;;
63284;SDS011;49409;55.708;37.522;2022-11-20T05:36:46;11.65;;;5.70;;
63284;SDS011;49409;55.708;37.522;2022-11-20T05:39:12;10.88;;;5.40;;
63284;SDS011;49409;55.708;37.522;2022-11-20T05:41:37;10.10;;;5.45;;
63284;SDS011;49409;55.708;37.522;2022-11-20T05:44:03;11.43;;;5.95;;
63284;SDS011;49409;55.708;37.522;2022-11-20T05:46:29;11.63;;;5.65;;
63284;SDS011;49409;55.708;37.522;2022-11-20T05:48:55;9.20;;;4.80;;
63284;SDS011;49409;55.708;37.522;2022-11-20T05:51:21;10.38;;;4.70;;
63284;SDS011;49409;55.708;37.522;2022-11-20T05:53:47;12.68;;;5.80;;
63284;SDS011;49409;55.708;37.522;2022-11-20T05:56:13;11.95;;;5.40;;
63284;SDS011;49409;55.708;37.522;2022-11-20T05:58:43;14.60;;;5.93;;
63284;SDS011;49409;55.708;37.522;2022-11-20T06:03:42;12.90;;;5.70;;
63284;SDS011;49409;55.708;37.522;2022-11-20T06:06:10;11.23;;;5.45;;
63284;SDS011;49409;55.708;37.522;2022-11-20T06:08:37;10.77;;;5.75;;
63284;SDS011;49409;55.708;37.522;2022-11-20T06:11:03;11.55;;;6.20;;
63284;SDS011;49409;55.708;37.522;2022-11-20T06:13:30;11.85;;;6.10;;
63284;SDS011;49409;55.708;37.522;2022-11-20T06:15:56;12.13;;;5.75;;
63284;SDS011;49409;55.708;37.522;2022-11-20T06:18:22;13.43;;;6.65;;
63284;SDS011;49409;55.708;37.522;2022-11-20T06:20:47;12.13;;;5.72;;
63284;SDS011;49409;55.708;37.522;2022-11-20T06:23:12;12.93;;;5.72;;
63284;SDS011;49409;55.708;37.522;2022-11-20T06:25:39;11.98;;;5.93;;
63284;SDS011;49409;55.708;37.522;2022-11-20T06:28:05;11.32;;;5.60;;
63284;SDS011;49409;55.708;37.522;2022-11-20T06:30:30;11.80;;;5.55;;
63284;SDS011;49409;55.708;37.522;2022-11-20T06:32:56;10.88;;;5.22;;
63284;SDS011;49409;55.708;37.522;2022-11-20T06:35:21;10.65;;;5.85;;
63284;SDS011;49409;55.708;37.522;2022-11-20T06:37:47;11.75;;;5.60;;
63284;SDS011;49409;55.708;37.522;2022-11-20T06:40:12;11.23;;;5.53;;
63284;SDS011;49409;55.708;37.522;2022-11-20T06:42:38;11.00;;;5.53;;
63284;SDS011;49409;55.708;37.522;2022-11-20T06:45:03;12.55;;;5.57;;
63284;SDS011;49409;55.708;37.522;2022-11-20T06:47:29;11.45;;;5.93;;
63284;SDS011;49409;55.708;37.522;2022-11-20T06:49:55;10.95;;;5.22;;
63284;SDS011;49409;55.708;37.522;2022-11-20T06:52:20;11.60;;;5.47;;
63284;SDS011;49409;55.708;37.522;2022-11-20T06:54:46;14.82;;;6.53;;
63284;SDS011;49409;55.708;37.522;2022-11-20T06:57:11;12.35;;;5.82;;
63284;SDS011;49409;55.708;37.522;2022-11-20T06:59:36;12.60;;;6.75;;
63284;SDS011;49409;55.708;37.522;2022-11-20T07:02:02;13.73;;;5.65;;
63284;SDS011;49409;55.708;37.522;2022-11-20T07:04:27;10.15;;;5.53;;
63284;SDS011;49409;55.708;37.522;2022-11-20T07:06:53;10.98;;;6.50;;
63284;SDS011;49409;55.708;37.522;2022-11-20T07:09:18;11.68;;;5.85;;
63284;SDS011;49409;55.708;37.522;2022-11-20T07:11:44;10.85;;;5.63;;
63284;SDS011;49409;55.708;37.522;2022-11-20T07:14:09;13.23;;;6.05;;
63284;SDS011;49409;55.708;37.522;2022-11-20T07:16:35;11.98;;;6.22;;
63284;SDS011;49409;55.708;37.522;2022-11-20T07:19:00;14.40;;;6.95;;
63284;SDS011;49409;55.708;37.522;2022-11-20T07:21:26;12.95;;;7.05;;
63284;SDS011;49409;55.708;37.522;2022-11-20T07:23:52;10.82;;;6.15;;
63284;SDS011;49409;55.708;37.522;2022-11-20T07:26:17;11.13;;;6.65;;
63284;SDS011;49409;55.708;37.522;2022-11-20T07:28:46;14.98;;;6.78;;
63284;SDS011;49409;55.708;37.522;2022-11-20T07:31:11;14.73;;;6.63;;
63284;SDS011;49409;55.708;37.522;2022-11-20T07:33:38;14.10;;;7.55;;
63284;SDS011;49409;55.708;37.522;2022-11-20T07:36:03;14.40;;;6.32;;
63284;SDS011;49409;55.708;37.522;2022-11-20T07:38:29;14.63;;;7.25;;
63284;SDS011;49409;55.708;37.522;2022-11-20T07:40:55;15.60;;;7.22;;
63284;SDS011;49409;55.708;37.522;2022-11-20T07:43:22;16.40;;;7.32;;
63284;SDS011;49409;55.708;37.522;2022-11-20T07:45:49;13.73;;;7.43;;
63284;SDS011;49409;55.708;37.522;2022-11-20T07:48:14;13.60;;;7.13;;
63284;SDS011;49409;55.708;37.522;2022-11-20T07:50:40;14.93;;;7.35;;
63284;SDS011;49409;55.708;37.522;2022-11-20T07:53:05;14.57;;;6.28;;
63284;SDS011;49409;55.708;37.522;2022-11-20T07:55:31;13.95;;;6.65;;
63284;SDS011;49409;55.708;37.522;2022-11-20T07:57:57;12.55;;;7.25;;
63284;SDS011;49409;55.708;37.522;2022-11-20T08:00:23;13.93;;;6.63;;
63284;SDS011;49409;55.708;37.522;2022-11-20T08:02:50;14.85;;;6.82;;
63284;SDS011;49409;55.708;37.522;2022-11-20T08:05:15;13.55;;;6.40;;
63284;SDS011;49409;55.708;37.522;2022-11-20T08:07:42;15.32;;;7.10;;
63284;SDS011;49409;55.708;37.522;2022-11-20T08:10:09;13.80;;;7.30;;
63284;SDS011;49409;55.708;37.522;2022-11-20T08:12:39;12.02;;;6.90;;
63284;SDS011;49409;55.708;37.522;2022-11-20T08:15:27;13.50;;;7.38;;
63284;SDS011;49409;55.708;37.522;2022-11-20T08:17:58;14.95;;;7.18;;
63284;SDS011;49409;55.708;37.522;2022-11-20T08:20:25;15.18;;;7.45;;
63284;SDS011;49409;55.708;37.522;2022-11-20T08:22:51;16.20;;;7.55;;
63284;SDS011;49409;55.708;37.522;2022-11-20T08:25:16;14.52;;;7.68;;
63284;SDS011;49409;55.708;37.522;2022-11-20T08:27:42;15.80;;;8.15;;
63284;SDS011;49409;55.708;37.522;2022-11-20T08:30:07;14.40;;;7.57;;
63284;SDS011;49409;55.708;37.522;2022-11-20T08:32:33;13.75;;;6.70;;
63284;SDS011;49409;55.708;37.522;2022-11-20T08:35:01;16.48;;;7.47;;
63284;SDS011;49409;55.708;37.522;2022-11-20T08:37:26;16.08;;;7.72;;
63284;SDS011;49409;55.708;37.522;2022-11-20T08:39:52;16.02;;;7.05;;
63284;SDS011;49409;55.708;37.522;2022-11-20T08:42:18;16.60;;;7.63;;
63284;SDS011;49409;55.708;37.522;2022-11-20T08:44:44;18.35;;;8.43;;
63284;SDS011;49409;55.708;37.522;2022-11-20T08:47:09;16.85;;;7.68;;
63284;SDS011;49409;55.708;37.522;2022-11-20T08:49:35;18.85;;;7.53;;
63284;SDS011;49409;55.708;37.522;2022-11-20T08:52:00;15.73;;;7.97;;
63284;SDS011;49409;55.708;37.522;2022-11-20T08:54:26;17.35;;;8.15;;
63284;SDS011;49409;55.708;37.522;2022-11-20T08:56:51;17.20;;;8.57;;
63284;SDS011;49409;55.708;37.522;2022-11-20T08:59:17;17.88;;;7.07;;
63284;SDS011;49409;55.708;37.522;2022-11-20T09:01:42;18.70;;;7.70;;
63284;SDS011;49409;55.708;37.522;2022-11-20T09:04:08;18.52;;;8.02;;
63284;SDS011;49409;55.708;37.522;2022-11-20T09:06:33;18.85;;;7.60;;
63284;SDS011;49409;55.708;37.522;2022-11-20T09:08:59;14.63;;;7.43;;
63284;SDS011;49409;55.708;37.522;2022-11-20T09:11:24;16.20;;;7.43;;
63284;SDS011;49409;55.708;37.522;2022-11-20T09:13:50;18.13;;;7.22;;
63284;SDS011;49409;55.708;37.522;2022-11-20T09:16:15;16.52;;;7.28;;
63284;SDS011;49409;55.708;37.522;2022-11-20T09:18:41;14.55;;;6.97;;
63284;SDS011;49409;55.708;37.522;2022-11-20T09:21:10;18.08;;;7.65;;
63284;SDS011;49409;55.708;37.522;2022-11-20T09:23:38;13.50;;;6.70;;
63284;SDS011;49409;55.708;37.522;2022-11-20T09:26:04;21.80;;;8.63;;
63284;SDS011;49409;55.708;37.522;2022-11-20T09:28:31;17.65;;;7.65;;
63284;SDS011;49409;55.708;37.522;2022-11-20T09:30:58;17.13;;;8.10;;
63284;SDS011;49409;55.708;37.522;2022-11-20T09:33:23;19.25;;;8.90;;
63284;SDS011;49409;55.708;37.522;2022-11-20T09:35:49;19.35;;;8.07;;
63284;SDS011;49409;55.708;37.522;2022-11-20T09:38:14;20.90;;;8.82;;
63284;SDS011;49409;55.708;37.522;2022-11-20T09:40:43;17.63;;;8.52;;
63284;SDS011;49409;55.708;37.522;2022-11-20T09:56:37;17.27;;;7.47;;
63284;SDS011;49409;55.708;37.522;2022-11-20T09:59:06;19.42;;;8.77;;
63284;SDS011;49409;55.708;37.522;2022-11-20T10:01:38;19.52;;;8.18;;
63284;SDS011;49409;55.708;37.522;2022-11-20T10:04:18;17.52;;;7.50;;
63284;SDS011;49409;55.708;37.522;2022-11-20T10:09:40;17.52;;;7.57;;
63284;SDS011;49409;55.708;37.522;2022-11-20T10:18:37;19.38;;;8.63;;
63284;SDS011;49409;55.708;37.522;2022-11-20T10:21:10;17.15;;;8.32;;
63284;SDS011;49409;55.708;37.522;2022-11-20T10:31:48;20.77;;;9.85;;
63284;SDS011;49409;55.708;37.522;2022-11-20T10:34:27;15.00;;;8.70;;
63284;SDS011;49409;55.708;37.522;2022-11-20T10:37:19;15.98;;;7.60;;
63284;SDS011;49409;55.708;37.522;2022-11-20T10:42:34;18.13;;;9.38;;
63284;SDS011;49409;55.708;37.522;2022-11-20T10:45:22;17.23;;;8.43;;
63284;SDS011;49409;55.708;37.522;2022-11-20T10:48:20;18.65;;;8.60;;
63284;SDS011;49409;55.708;37.522;2022-11-20T10:50:54;20.63;;;8.77;;
63284;SDS011;49409;55.708;37.522;2022-11-20T10:53:54;19.92;;;7.97;;
63284;SDS011;49409;55.708;37.522;2022-11-20T11:01:39;15.30;;;8.02;;
63284;SDS011;49409;55.708;37.522;2022-11-20T11:04:07;17.25;;;8.20;;
63284;SDS011;49409;55.708;37.522;2022-11-20T11:07:13;16.40;;;8.18;;
63284;SDS011;49409;55.708;37.522;2022-11-20T11:09:48;19.02;;;7.65;;
63284;SDS011;49409;55.708;37.522;2022-11-20T11:12:17;13.65;;;7.13;;
63284;SDS011;49409;55.708;37.522;2022-11-20T11:20:00;12.82;;;5.97;;
63284;SDS011;49409;55.708;37.522;2022-11-20T11:22:46;15.38;;;6.35;;
63284;SDS011;49409;55.708;37.522;2022-11-20T11:27:46;13.07;;;5.70;;
63284;SDS011;49409;55.708;37.522;2022-11-20T11:30:13;14.75;;;6.68;;
63284;SDS011;49409;55.708;37.522;2022-11-20T11:32:40;10.73;;;5.80;;
63284;SDS011;49409;55.708;37.522;2022-11-20T11:35:11;14.07;;;6.57;;
63284;SDS011;49409;55.708;37.522;2022-11-20T11:37:45;11.52;;;6.13;;
63284;SDS011;49409;55.708;37.522;2022-11-20T11:40:12;11.25;;;6.30;;
63284;SDS011;49409;55.708;37.522;2022-11-20T11:43:16;10.05;;;5.53;;
63284;SDS011;49409;55.708;37.522;2022-11-20T11:45:53;11.40;;;5.82;;
63284;SDS011;49409;55.708;37.522;2022-11-20T11:48:20;13.77;;;6.80;;
63284;SDS011;49409;55.708;37.522;2022-11-20T11:50:49;11.32;;;5.85;;
63284;SDS011;49409;55.708;37.522;2022-11-20T11:53:17;10.35;;;5.65;;
63284;SDS011;49409;55.708;37.522;2022-11-20T12:01:04;11.60;;;5.18;;
63284;SDS011;49409;55.708;37.522;2022-11-20T12:06:53;11.82;;;6.20;;
63284;SDS011;49409;55.708;37.522;2022-11-20T12:09:27;11.32;;;4.78;;
63284;SDS011;49409;55.708;37.522;2022-11-20T12:15:11;13.35;;;5.93;;
63284;SDS011;49409;55.708;37.522;2022-11-20T12:17:41;10.45;;;5.38;;
63284;SDS011;49409;55.708;37.522;2022-11-20T12:20:11;12.52;;;6.30;;
63284;SDS011;49409;55.708;37.522;2022-11-20T12:30:44;12.98;;;6.95;;
63284;SDS011;49409;55.708;37.522;2022-11-20T12:45:10;13.80;;;6.73;;
63284;SDS011;49409;55.708;37.522;2022-11-20T12:50:39;12.50;;;6.53;;
63284;SDS011;49409;55.708;37.522;2022-11-20T12:53:33;12.25;;;6.13;;
63284;SDS011;49409;55.708;37.522;2022-11-20T13:07:08;13.75;;;6.22;;
63284;SDS011;49409;55.708;37.522;2022-11-20T13:09:39;14.73;;;6.88;;
63284;SDS011;49409;55.708;37.522;2022-11-20T13:17:53;10.73;;;5.72;;
63284;SDS011;49409;55.708;37.522;2022-11-20T13:20:22;12.70;;;5.80;;
63284;SDS011;49409;55.708;37.522;2022-11-20T13:22:52;12.00;;;5.55;;
63284;SDS011;49409;55.708;37.522;2022-11-20T13:25:25;11.05;;;5.70;;
63284;SDS011;49409;55.708;37.522;2022-11-20T13:27:54;12.70;;;5.80;;
63284;SDS011;49409;55.708;37.522;2022-11-20T13:30:25;13.52;;;6.15;;
63284;SDS011;49409;55.708;37.522;2022-11-20T13:33:08;11.45;;;5.90;;
63284;SDS011;49409;55.708;37.522;2022-11-20T13:36:20;13.63;;;6.25;;
63284;SDS011;49409;55.708;37.522;2022-11-20T13:38:48;11.82;;;5.68;;
63284;SDS011;49409;55.708;37.522;2022-11-20T13:41:34;13.88;;;6.90;;
63284;SDS011;49409;55.708;37.522;2022-11-20T13:46:38;12.52;;;6.85;;
63284;SDS011;49409;55.708;37.522;2022-11-20T13:49:09;13.98;;;6.18;;
63284;SDS011;49409;55.708;37.522;2022-11-20T13:51:48;13.30;;;6.28;;
63284;SDS011;49409;55.708;37.522;2022-11-20T13:54:26;12.88;;;6.40;;
63284;SDS011;49409;55.708;37.522;2022-11-20T14:02:22;12.18;;;6.63;;
63284;SDS011;49409;55.708;37.522;2022-11-20T14:04:51;12.88;;;5.72;;
63284;SDS011;49409;55.708;37.522;2022-11-20T14:07:19;12.25;;;5.72;;
63284;SDS011;49409;55.708;37.522;2022-11-20T14:09:52;14.18;;;6.20;;
63284;SDS011;49409;55.708;37.522;2022-11-20T14:12:21;15.43;;;7.25;;
63284;SDS011;49409;55.708;37.522;2022-11-20T14:14:51;13.85;;;6.63;;
63284;SDS011;49409;55.708;37.522;2022-11-20T14:19:53;12.20;;;5.95;;
63284;SDS011;49409;55.708;37.522;2022-11-20T14:22:22;14.30;;;6.60;;
63284;SDS011;49409;55.708;37.522;2022-11-20T14:25:01;16.27;;;6.82;;
63284;SDS011;49409;55.708;37.522;2022-11-20T14:27:29;11.88;;;6.40;;
63284;SDS011;49409;55.708;37.522;2022-11-20T14:30:00;13.52;;;5.72;;
63284;SDS011;49409;55.708;37.522;2022-11-20T14:32:28;17.52;;;7.65;;
63284;SDS011;49409;55.708;37.522;2022-11-20T14:34:56;12.05;;;6.38;;
63284;SDS011;49409;55.708;37.522;2022-11-20T14:37:27;14.32;;;6.70;;
63284;SDS011;49409;55.708;37.522;2022-11-20T14:39:58;15.85;;;7.55;;
63284;SDS011;49409;55.708;37.522;2022-11-20T14:42:27;12.38;;;6.07;;
63284;SDS011;49409;55.708;37.522;2022-11-20T14:44:57;15.32;;;7.55;;
63284;SDS011;49409;55.708;37.522;2022-11-20T14:47:25;13.48;;;6.88;;
63284;SDS011;49409;55.708;37.522;2022-11-20T14:49:54;14.20;;;7.05;;
63284;SDS011;49409;55.708;37.522;2022-11-20T14:52:24;13.23;;;6.65;;
63284;SDS011;49409;55.708;37.522;2022-11-20T14:54:52;15.48;;;7.32;;
63284;SDS011;49409;55.708;37.522;2022-11-20T14:57:29;12.82;;;7.25;;
63284;SDS011;49409;55.708;37.522;2022-11-20T15:00:03;12.05;;;6.85;;
63284;SDS011;49409;55.708;37.522;2022-11-20T15:02:29;13.95;;;6.45;;
63284;SDS011;49409;55.708;37.522;2022-11-20T15:05:00;16.92;;;7.53;;
63284;SDS011;49409;55.708;37.522;2022-11-20T15:07:32;15.18;;;6.95;;
63284;SDS011;49409;55.708;37.522;2022-11-20T15:10:04;14.48;;;7.32;;
63284;SDS011;49409;55.708;37.522;2022-11-20T15:12:31;11.43;;;6.78;;
63284;SDS011;49409;55.708;37.522;2022-11-20T15:14:58;11.40;;;6.55;;
63284;SDS011;49409;55.708;37.522;2022-11-20T15:17:25;16.17;;;7.70;;
63284;SDS011;49409;55.708;37.522;2022-11-20T15:19:51;12.90;;;6.97;;
63284;SDS011;49409;55.708;37.522;2022-11-20T15:22:18;16.65;;;7.50;;
63284;SDS011;49409;55.708;37.522;2022-11-20T15:24:44;13.07;;;6.53;;
63284;SDS011;49409;55.708;37.522;2022-11-20T15:27:10;15.20;;;7.10;;
63284;SDS011;49409;55.708;37.522;2022-11-20T15:29:36;12.50;;;6.45;;
63284;SDS011;49409;55.708;37.522;2022-11-20T15:32:01;14.00;;;6.15;;
63284;SDS011;49409;55.708;37.522;2022-11-20T15:34:28;11.55;;;5.75;;
63284;SDS011;49409;55.708;37.522;2022-11-20T15:36:54;12.27;;;6.72;;
63284;SDS011;49409;55.708;37.522;2022-11-20T15:39:20;13.13;;;7.53;;
63284;SDS011;49409;55.708;37.522;2022-11-20T15:41:46;12.65;;;6.60;;
63284;SDS011;49409;55.708;37.522;2022-11-20T15:44:11;15.00;;;7.50;;
63284;SDS011;49409;55.708;37.522;2022-11-20T15:46:38;13.43;;;6.75;;
63284;SDS011;49409;55.708;37.522;2022-11-20T15:49:16;12.32;;;6.55;;
63284;SDS011;49409;55.708;37.522;2022-11-20T15:51:44;11.75;;;6.65;;
63284;SDS011;49409;55.708;37.522;2022-11-20T15:54:14;13.85;;;6.93;;
63284;SDS011;49409;55.708;37.522;2022-11-20T15:56:42;15.45;;;7.35;;
63284;SDS011;49409;55.708;37.522;2022-11-20T15:59:07;15.73;;;7.82;;
63284;SDS011;49409;55.708;37.522;2022-11-20T16:01:33;15.50;;;7.43;;
63284;SDS011;49409;55.708;37.522;2022-11-20T16:03:59;11.02;;;7.18;;
63284;SDS011;49409;55.708;37.522;2022-11-20T16:06:25;14.60;;;7.93;;
63284;SDS011;49409;55.708;37.522;2022-11-20T16:08:51;15.10;;;7.97;;
63284;SDS011;49409;55.708;37.522;2022-11-20T16:11:17;11.82;;;6.32;;
63284;SDS011;49409;55.708;37.522;2022-11-20T16:13:43;13.30;;;6.57;;
63284;SDS011;49409;55.708;37.522;2022-11-20T16:16:32;15.13;;;6.65;;
63284;SDS011;49409;55.708;37.522;2022-11-20T16:21:25;12.05;;;6.05;;
63284;SDS011;49409;55.708;37.522;2022-11-20T16:24:04;13.55;;;7.47;;
63284;SDS011;49409;55.708;37.522;2022-11-20T16:26:31;14.25;;;7.10;;
63284;SDS011;49409;55.708;37.522;2022-11-20T16:29:00;13.43;;;6.57;;
63284;SDS011;49409;55.708;37.522;2022-11-20T16:31:27;14.63;;;7.10;;
63284;SDS011;49409;55.708;37.522;2022-11-20T16:33:57;15.55;;;7.10;;
63284;SDS011;49409;55.708;37.522;2022-11-20T16:36:25;16.13;;;7.47;;